Time;durP1;ratioP1;P1;durP2;ratioP2;P2;SDS_P1;SDS_P2;PMS_P1;PMS_P2;Temp;Humidity;BMP_temperature;BMP_pressure;BME280_temperature;BME280_humidity;BME280_pressure;Samples;Min_cycle;Max_cycle;Signal;HPM_P1;HPM_P2
2022/10/24 00:12:00;;;;;;;22.80;9.30;;;;;;;10.20;100.00;100095.38;31702049;28;20153;-75
2022/10/24 00:27:03;;;;;;;18.37;10.23;;;;;;;10.20;100.00;100110.88;31679899;28;20056;-75
2022/10/24 00:42:05;;;;;;;23.70;10.53;;;;;;;10.22;100.00;100124.78;31710467;28;20085;-75
2022/10/24 00:57:39;;;;;;;24.10;11.43;;;;;;;10.10;100.00;100134.28;31658193;28;20084;-74
2022/10/24 01:13:09;;;;;;;26.23;11.73;;;;;;;10.09;100.00;100142.84;31675059;28;20050;-74
2022/10/24 01:28:20;;;;;;;24.93;11.63;;;;;;;10.11;100.00;100162.16;31645675;28;20056;-75
2022/10/24 01:43:30;;;;;;;24.77;11.37;;;;;;;10.17;100.00;100193.06;31683742;28;20048;-74
2022/10/24 01:58:32;;;;;;;29.83;12.37;;;;;;;10.24;100.00;100201.09;31633914;28;20063;-74
2022/10/24 02:14:04;;;;;;;30.83;13.03;;;;;;;10.30;100.00;100204.88;31674050;28;20055;-75
2022/10/24 02:29:13;;;;;;;26.47;11.57;;;;;;;10.45;100.00;100213.53;31713498;28;20051;-74
2022/10/24 02:44:16;;;;;;;46.40;14.83;;;;;;;10.53;100.00;100210.31;31632025;28;20052;-75
2022/10/24 02:59:18;;;;;;;36.63;13.87;;;;;;;10.59;100.00;100214.06;31659139;28;20052;-75
2022/10/24 03:14:20;;;;;;;43.33;13.97;;;;;;;10.68;100.00;100205.38;31708749;28;20040;-74
2022/10/24 03:29:22;;;;;;;33.13;13.30;;;;;;;10.77;100.00;100230.03;31664723;28;20047;-75
2022/10/24 03:44:24;;;;;;;39.70;13.93;;;;;;;10.91;100.00;100218.13;31691436;28;20056;-75
2022/10/24 03:59:26;;;;;;;32.33;12.50;;;;;;;11.00;100.00;100231.16;31663330;27;20055;-74
2022/10/24 04:14:28;;;;;;;29.10;12.17;;;;;;;11.02;100.00;100242.38;31675574;28;20056;-75
2022/10/24 04:29:30;;;;;;;28.80;11.73;;;;;;;11.05;100.00;100242.31;31676865;28;20421;-75
2022/10/24 04:44:31;;;;;;;29.23;11.90;;;;;;;10.99;100.00;100256.78;31659420;28;20046;-75
2022/10/24 04:59:33;;;;;;;30.83;13.13;;;;;;;11.49;100.00;100278.31;31653137;28;20047;-75
2022/10/24 05:14:35;;;;;;;26.33;12.30;;;;;;;11.63;100.00;100335.13;31678090;28;20052;-76
2022/10/24 05:29:37;;;;;;;18.43;8.90;;;;;;;11.51;100.00;100381.97;31672123;28;20060;-76
2022/10/24 05:44:39;;;;;;;12.00;7.20;;;;;;;13.94;100.00;100436.59;31668124;28;20051;-74
2022/10/24 05:59:41;;;;;;;11.00;6.80;;;;;;;13.05;100.00;100459.94;31661907;28;20060;-76
2022/10/24 06:14:43;;;;;;;15.10;7.83;;;;;;;12.69;100.00;100453.81;31644835;28;20056;-75
2022/10/24 06:29:45;;;;;;;18.33;8.90;;;;;;;12.83;100.00;100453.47;31667602;28;20059;-76
2022/10/24 06:44:47;;;;;;;9.77;6.37;;;;;;;15.48;100.00;100487.34;31699866;28;20052;-75
2022/10/24 06:59:49;;;;;;;17.03;7.70;;;;;;;15.95;100.00;100495.50;31644648;28;20059;-77
2022/10/24 07:14:51;;;;;;;12.07;7.63;;;;;;;17.17;100.00;100517.16;31679696;28;20044;-76
2022/10/24 07:49:45;;;;;;;18.65;10.40;;;;;;;15.83;100.00;100518.97;31306496;28;20470;-76
2022/10/24 08:04:47;;;;;;;15.20;9.00;;;;;;;15.49;100.00;100524.44;31258021;28;20057;-76
2022/10/24 08:19:49;;;;;;;14.67;8.73;;;;;;;15.35;100.00;100534.63;31262138;28;20049;-77
2022/10/24 08:34:51;;;;;;;17.67;9.87;;;;;;;15.54;100.00;100540.28;31252896;28;20057;-75
2022/10/24 08:50:22;;;;;;;16.57;9.13;;;;;;;16.08;100.00;100552.94;31139579;28;20054;-76
2022/10/24 09:05:36;;;;;;;14.47;8.67;;;;;;;16.25;100.00;100562.53;31113407;28;20462;-75
2022/10/24 09:20:38;;;;;;;13.30;6.90;;;;;;;16.35;100.00;100558.63;31112540;28;20054;-76
2022/10/24 09:35:41;;;;;;;10.57;7.83;;;;;;;15.74;100.00;100551.75;31102579;28;20065;-74
2022/10/24 09:50:45;;;;;;;14.07;8.50;;;;;;;17.36;100.00;100552.41;31130112;28;20049;-75
2022/10/24 10:06:01;;;;;;;8.53;6.73;;;;;;;16.89;100.00;100557.44;31124642;28;20072;-75
2022/10/24 10:21:13;;;;;;;17.30;10.77;;;;;;;16.08;100.00;100561.91;31122327;28;20050;-76
2022/10/24 10:36:31;;;;;;;14.27;9.80;;;;;;;16.65;100.00;100563.41;31113396;28;20415;-76
2022/10/24 10:51:43;;;;;;;12.73;8.18;;;;;;;16.20;100.00;100557.59;31112389;28;20054;-75
2022/10/24 11:07:07;;;;;;;8.68;5.55;;;;;;;16.42;100.00;100558.38;31116415;28;20061;-75
2022/10/24 11:22:18;;;;;;;11.10;5.97;;;;;;;16.98;100.00;100562.97;31104861;28;20112;-76
2022/10/24 11:37:27;;;;;;;5.45;4.38;;;;;;;20.32;100.00;100561.50;31110263;28;20086;-75
2022/10/24 11:52:47;;;;;;;8.93;5.60;;;;;;;21.37;72.12;100559.72;31096248;28;20049;-76
2022/10/24 12:08:10;;;;;;;7.35;5.88;;;;;;;20.49;77.66;100570.88;31103267;28;20054;-74
2022/10/24 12:23:26;;;;;;;11.30;7.00;;;;;;;17.35;83.92;100578.31;31129174;28;20050;-76
2022/10/24 12:38:28;;;;;;;13.65;7.30;;;;;;;16.29;94.49;100580.38;31120894;28;20058;-75
2022/10/24 12:53:38;;;;;;;11.53;6.73;;;;;;;15.63;99.03;100590.41;31134521;28;20451;-76
2022/10/24 13:08:51;;;;;;;23.17;12.10;;;;;;;15.41;100.00;100589.53;31137594;28;20050;-75
2022/10/24 13:24:28;;;;;;;11.73;8.00;;;;;;;14.95;100.00;100593.69;31111637;28;20061;-75
2022/10/24 13:39:34;;;;;;;10.63;7.50;;;;;;;14.79;100.00;100623.88;31126231;28;20058;-76
2022/10/24 13:54:46;;;;;;;8.50;6.23;;;;;;;14.65;100.00;100625.78;31126186;28;20057;-75
2022/10/24 14:10:04;;;;;;;8.03;6.03;;;;;;;14.52;100.00;100627.72;31122865;28;20065;-77
2022/10/24 14:25:29;;;;;;;10.73;6.87;;;;;;;14.28;100.00;100626.41;31203038;28;20553;-77
2022/10/24 14:40:31;;;;;;;7.87;5.57;;;;;;;14.29;100.00;100630.66;31121224;28;20077;-76
2022/10/24 14:55:33;;;;;;;6.50;4.87;;;;;;;14.39;100.00;100629.63;31119237;28;20088;-75
2022/10/24 15:10:40;;;;;;;7.87;5.53;;;;;;;14.33;100.00;100598.56;31117197;28;20422;-75
2022/10/24 15:25:41;;;;;;;8.67;4.27;;;;;;;14.19;100.00;100631.69;31111349;28;20057;-77
2022/10/24 15:40:48;;;;;;;6.07;3.73;;;;;;;14.14;100.00;100648.63;31109472;28;20050;-76
2022/10/24 15:55:50;;;;;;;4.23;3.13;;;;;;;14.09;100.00;100657.34;31124162;28;20055;-77
2022/10/24 16:10:52;;;;;;;10.03;5.70;;;;;;;14.06;100.00;100650.00;31108319;28;20062;-78
2022/10/24 16:25:54;;;;;;;5.07;3.13;;;;;;;14.03;100.00;100648.13;31134956;28;20068;-75
2022/10/24 16:40:57;;;;;;;4.90;3.10;;;;;;;14.06;100.00;100660.91;31123308;28;20057;-77
2022/10/24 16:55:59;;;;;;;4.30;3.40;;;;;;;14.08;100.00;100666.72;31103137;28;20081;-76
2022/10/24 17:11:00;;;;;;;5.73;3.20;;;;;;;13.98;100.00;100693.84;31115980;28;20049;-76
2022/10/24 17:26:02;;;;;;;6.70;3.50;;;;;;;13.96;100.00;100693.50;31110304;28;20062;-75
2022/10/24 17:41:18;;;;;;;6.47;4.10;;;;;;;13.91;100.00;100677.66;31102134;28;20503;-77
2022/10/24 17:56:20;;;;;;;15.00;8.90;;;;;;;13.89;100.00;100690.94;31108671;28;20522;-76
2022/10/24 18:11:26;;;;;;;10.93;5.90;;;;;;;13.82;100.00;100704.75;31122826;28;20488;-77
2022/10/24 18:26:28;;;;;;;9.40;5.53;;;;;;;13.78;100.00;100689.66;31122864;28;20669;-77
2022/10/24 18:41:40;;;;;;;10.87;6.33;;;;;;;13.58;100.00;100697.91;31113157;28;20053;-77
2022/10/24 18:56:42;;;;;;;12.93;5.80;;;;;;;13.45;100.00;100672.50;31119532;28;20050;-77
2022/10/24 19:11:47;;;;;;;9.70;6.80;;;;;;;13.35;100.00;100678.94;31117490;28;20053;-76
2022/10/24 19:26:49;;;;;;;15.53;10.27;;;;;;;13.25;100.00;100681.47;31113891;28;20050;-75
2022/10/24 19:41:51;;;;;;;11.33;7.93;;;;;;;13.28;100.00;100674.41;31092894;28;20053;-77
2022/10/24 19:56:53;;;;;;;6.47;5.23;;;;;;;13.30;100.00;100672.03;31098359;28;20077;-76
2022/10/24 20:11:55;;;;;;;10.00;6.67;;;;;;;13.35;100.00;100689.84;31114322;28;20542;-77
2022/10/24 20:26:57;;;;;;;8.00;5.07;;;;;;;13.36;100.00;100713.22;31095763;28;20058;-76
2022/10/24 20:41:59;;;;;;;8.93;4.60;;;;;;;13.44;100.00;100707.19;31127070;28;20057;-76
2022/10/24 20:57:01;;;;;;;7.20;4.37;;;;;;;13.46;100.00;100690.41;31123218;28;20054;-76
2022/10/24 21:12:03;;;;;;;11.37;5.40;;;;;;;13.44;100.00;100709.16;31128246;28;20054;-76
2022/10/24 21:27:05;;;;;;;8.03;4.60;;;;;;;13.43;100.00;100718.50;31111852;28;20081;-76
2022/10/24 21:42:07;;;;;;;8.10;4.80;;;;;;;13.31;100.00;100712.50;31127985;28;20085;-75
2022/10/24 21:57:09;;;;;;;6.47;4.47;;;;;;;13.28;100.00;100724.25;31125581;28;20411;-77
2022/10/24 22:12:11;;;;;;;26.70;14.37;;;;;;;13.15;100.00;100737.00;31124436;28;20052;-76
2022/10/24 22:27:13;;;;;;;15.60;9.43;;;;;;;12.80;100.00;100726.75;31106733;28;20112;-76
2022/10/24 22:42:15;;;;;;;11.50;6.93;;;;;;;12.56;100.00;100680.50;31121671;28;20053;-76
2022/10/24 22:57:21;;;;;;;11.67;7.40;;;;;;;12.67;100.00;100693.91;31119732;28;20050;-75
2022/10/24 23:12:23;;;;;;;13.90;6.90;;;;;;;12.72;100.00;100688.00;31099158;28;20054;-76
2022/10/24 23:27:33;;;;;;;20.03;11.97;;;;;;;12.20;100.00;100709.53;31116868;28;20475;-76
2022/10/24 23:42:35;;;;;;;20.13;10.40;;;;;;;12.19;100.00;100667.16;31105266;28;20061;-75
2022/10/24 23:57:37;;;;;;;24.57;11.47;;;;;;;12.27;100.00;100638.66;31097448;28;20065;-75
